Gas Grouper — V7TZ2 — position and weather

sailwx.info

Track history (hours):
 
Tides and Currents Weather Stations Pressure Air Temp Water Temp Dewpoint Dewpoint Depression Visibility Wind Speed Wind Dir Waves Ship Positions

Gas Grouper

Last reported at 2015-May-06 06:33 UTC. Time now 2015-May-06 07:25 UTC.
Position N 51°22' E 002°39'.

Length 174 m; draft 10.5 m.

Type: Tanker. MMSI: 538003910.

Date/timePositionNaut miles runAvg speedWind from/ knotsBaromVisibWave heightAir tempDewpointWater temp
2015-May-06 06:33N 51°22' E 002°39'1414.4
2015-May-06 05:33N 51°18' E 002°17'1615.9
2015-May-06 04:33N 51°09' E 001°55'1716.6
2015-May-06 03:33N 50°58' E 001°35'4016.0
2015-May-06 01:05N 50°29' E 000°53'  
2015-May-03 13:31N 39°15' W 009°57'1515.3
2015-May-03 12:33N 39°00' W 009°57'1515.3
2015-May-03 11:33N 38°45' W 009°57'1514.6
2015-May-03 10:33N 38°30' W 009°53'1414.4
2015-May-03 09:33N 38°16' W 009°49'1414.1
2015-May-03 08:33N 38°02' W 009°45'1414.2
2015-May-03 07:33N 37°49' W 009°41'1414.4
2015-May-03 06:33N 37°35' W 009°37'1514.6
2015-May-03 05:33N 37°21' W 009°33'1514.7
2015-May-03 04:33N 37°06' W 009°29'1514.7
2015-May-03 03:32N 36°51' W 009°25'1414.8
2015-May-03 02:33N 36°41' W 009°12'1515.1
2015-May-03 01:33N 36°37' W 008°54'1514.9
2015-May-03 00:33N 36°32' W 008°36'1514.9
2015-May-02 23:33N 36°28' W 008°19'1514.9
2015-May-02 22:33N 36°24' W 008°01'4815.2
2015-May-02 19:22N 36°10' W 007°04'7313.9
2015-May-02 14:09N 35°57' W 005°35'813.6
2015-May-02 13:33N 36°00' W 005°26'1313.1
2015-May-02 12:33N 36°04' W 005°11'10615.0
2015-May-02 05:30N 36°20' W 003°01'1415.0
2015-May-02 04:33N 36°22' W 002°44'1514.9
2015-May-02 03:33N 36°24' W 002°26'1615.5
2015-May-02 02:33N 36°26' W 002°07'1515.2
2015-May-02 01:33N 36°29' W 001°48'1515.4
2015-May-02 00:33N 36°32' W 001°29'1515.5
2015-May-01 23:33N 36°34' W 001°10'1615.6
2015-May-01 22:33N 36°37' W 000°51'1815.3
2015-May-01 21:24N 36°41' W 000°29'1315.3
2015-May-01 20:33N 36°42' W 000°13'1515.0
2015-May-01 19:33N 36°45' E 000°05'1515.3
2015-May-01 18:33N 36°48' E 000°24'1515.0
2015-May-01 17:33N 36°50' E 000°42'1515.1
2015-May-01 16:33N 36°53' E 001°01'1414.5
2015-May-01 15:34N 36°55' E 001°19'1514.9
2015-May-01 14:33N 36°58' E 001°37'1515.5
2015-May-01 13:33N 37°01' E 001°56'1515.4
2015-May-01 12:33N 37°03' E 002°15'1515.0
2015-May-01 11:33N 37°06' E 002°34'1514.8
2015-May-01 10:33N 37°09' E 002°52'1514.5
2015-May-01 09:33N 37°11' E 003°10'1514.6
2015-May-01 08:32N 37°14' E 003°28'1414.8
2015-May-01 07:33N 37°16' E 003°46'1515.0
2015-May-01 06:33N 37°19' E 004°05'1515.2
2015-May-01 05:33N 37°22' E 004°24'1515.3
2015-May-01 04:33N 37°24' E 004°43'1816.1
2015-May-01 03:27N 37°27' E 005°05'1415.5
2015-May-01 02:34N 37°30' E 005°22'1615.7
2015-May-01 01:33N 37°32' E 005°41'1615.4
2015-May-01 00:32N 37°35' E 006°01'27015.0
2015-Apr-30 06:32N 37°15' E 011°40'1515.1
2015-Apr-30 05:33N 37°08' E 011°57'1514.9
2015-Apr-30 04:32N 37°02' E 012°14'1515.0
2015-Apr-30 03:33N 36°54' E 012°30'1515.4
2015-Apr-30 02:33N 36°47' E 012°47'1515.5
2015-Apr-30 01:33N 36°41' E 013°04'1515.3
2015-Apr-30 00:33N 36°37' E 013°23'1515.0
2015-Apr-29 23:33N 36°32' E 013°41'1514.8
2015-Apr-29 22:33N 36°28' E 013°59'1514.8
2015-Apr-29 21:33N 36°24' E 014°16'1514.9
2015-Apr-29 20:33N 36°20' E 014°34'1414.3
2015-Apr-29 19:33N 36°17' E 014°51'1414.1
2015-Apr-29 18:33N 36°14' E 015°08'1714.0
2015-Apr-29 17:18N 36°08' E 015°29'42013.6
2015-Apr-28 10:27N 37°03' E 024°07'18315.1
2015-Apr-27 22:19N 39°49' E 025°46'  
Track history (hours):
 
Tides and Currents Weather Stations Pressure Air Temp Water Temp Dewpoint Dewpoint Depression Visibility Wind Speed Wind Dir Waves Ship Positions

Gas Grouper

Last reported at 2015-May-06 06:33 UTC. Time now 2015-May-06 07:25 UTC.
Position N 51°22' E 002°39'.

Length 174 m; draft 10.5 m.

Type: Tanker. MMSI: 538003910.

Date/timePositionNaut miles runAvg speedWind from/ knotsBaromVisibWave heightAir tempDewpointWater temp
2015-May-06 06:33N 51°22' E 002°39'1414.4
2015-May-06 05:33N 51°18' E 002°17'1615.9
2015-May-06 04:33N 51°09' E 001°55'1716.6
2015-May-06 03:33N 50°58' E 001°35'4016.0
2015-May-06 01:05N 50°29' E 000°53'  
2015-May-03 13:31N 39°15' W 009°57'1515.3
2015-May-03 12:33N 39°00' W 009°57'1515.3
2015-May-03 11:33N 38°45' W 009°57'1514.6
2015-May-03 10:33N 38°30' W 009°53'1414.4
2015-May-03 09:33N 38°16' W 009°49'1414.1
2015-May-03 08:33N 38°02' W 009°45'1414.2
2015-May-03 07:33N 37°49' W 009°41'1414.4
2015-May-03 06:33N 37°35' W 009°37'1514.6
2015-May-03 05:33N 37°21' W 009°33'1514.7
2015-May-03 04:33N 37°06' W 009°29'1514.7
2015-May-03 03:32N 36°51' W 009°25'1414.8
2015-May-03 02:33N 36°41' W 009°12'1515.1
2015-May-03 01:33N 36°37' W 008°54'1514.9
2015-May-03 00:33N 36°32' W 008°36'1514.9
2015-May-02 23:33N 36°28' W 008°19'1514.9
2015-May-02 22:33N 36°24' W 008°01'4815.2
2015-May-02 19:22N 36°10' W 007°04'7313.9
2015-May-02 14:09N 35°57' W 005°35'813.6
2015-May-02 13:33N 36°00' W 005°26'1313.1
2015-May-02 12:33N 36°04' W 005°11'10615.0
2015-May-02 05:30N 36°20' W 003°01'1415.0
2015-May-02 04:33N 36°22' W 002°44'1514.9
2015-May-02 03:33N 36°24' W 002°26'1615.5
2015-May-02 02:33N 36°26' W 002°07'1515.2
2015-May-02 01:33N 36°29' W 001°48'1515.4
2015-May-02 00:33N 36°32' W 001°29'1515.5
2015-May-01 23:33N 36°34' W 001°10'1615.6
2015-May-01 22:33N 36°37' W 000°51'1815.3
2015-May-01 21:24N 36°41' W 000°29'1315.3
2015-May-01 20:33N 36°42' W 000°13'1515.0
2015-May-01 19:33N 36°45' E 000°05'1515.3
2015-May-01 18:33N 36°48' E 000°24'1515.0
2015-May-01 17:33N 36°50' E 000°42'1515.1
2015-May-01 16:33N 36°53' E 001°01'1414.5
2015-May-01 15:34N 36°55' E 001°19'1514.9
2015-May-01 14:33N 36°58' E 001°37'1515.5
2015-May-01 13:33N 37°01' E 001°56'1515.4
2015-May-01 12:33N 37°03' E 002°15'1515.0
2015-May-01 11:33N 37°06' E 002°34'1514.8
2015-May-01 10:33N 37°09' E 002°52'1514.5
2015-May-01 09:33N 37°11' E 003°10'1514.6
2015-May-01 08:32N 37°14' E 003°28'1414.8
2015-May-01 07:33N 37°16' E 003°46'1515.0
2015-May-01 06:33N 37°19' E 004°05'1515.2
2015-May-01 05:33N 37°22' E 004°24'1515.3
2015-May-01 04:33N 37°24' E 004°43'1816.1
2015-May-01 03:27N 37°27' E 005°05'1415.5
2015-May-01 02:34N 37°30' E 005°22'1615.7
2015-May-01 01:33N 37°32' E 005°41'1615.4
2015-May-01 00:32N 37°35' E 006°01'27015.0
2015-Apr-30 06:32N 37°15' E 011°40'1515.1
2015-Apr-30 05:33N 37°08' E 011°57'1514.9
2015-Apr-30 04:32N 37°02' E 012°14'1515.0
2015-Apr-30 03:33N 36°54' E 012°30'1515.4
2015-Apr-30 02:33N 36°47' E 012°47'1515.5
2015-Apr-30 01:33N 36°41' E 013°04'1515.3
2015-Apr-30 00:33N 36°37' E 013°23'1515.0
2015-Apr-29 23:33N 36°32' E 013°41'1514.8
2015-Apr-29 22:33N 36°28' E 013°59'1514.8
2015-Apr-29 21:33N 36°24' E 014°16'1514.9
2015-Apr-29 20:33N 36°20' E 014°34'1414.3
2015-Apr-29 19:33N 36°17' E 014°51'1414.1
2015-Apr-29 18:33N 36°14' E 015°08'1714.0
2015-Apr-29 17:18N 36°08' E 015°29'42013.6
2015-Apr-28 10:27N 37°03' E 024°07'18315.1
2015-Apr-27 22:19N 39°49' E 025°46'  

Dump ship's entire track history